sensor_id;sensor_type;location;lat;lon;timestamp;pressure;altitude;pressure_sealevel;temperature;humidity
25110;BME280;13507;49.030;11.940;2023-01-30T00:40:34;97434.41;;;18.21;47.83
25110;BME280;13507;49.030;11.940;2023-01-30T00:44:36;97436.28;;;18.26;47.30
25110;BME280;13507;49.030;11.940;2023-01-30T00:46:18;97432.84;;;18.25;47.70
25110;BME280;13507;49.030;11.940;2023-01-30T00:54:40;97418.47;;;18.26;47.22
25110;BME280;13507;49.030;11.940;2023-01-30T00:56:40;97421.94;;;18.27;47.87
25110;BME280;13507;49.030;11.940;2023-01-30T02:03:44;97427.47;;;18.15;47.79
25110;BME280;13507;49.030;11.940;2023-01-30T02:15:38;97394.75;;;18.14;46.85
25110;BME280;13507;49.030;11.940;2023-01-30T02:33:17;97387.56;;;18.15;47.34
25110;BME280;13507;49.030;11.940;2023-01-30T02:39:19;97363.63;;;18.15;47.56
25110;BME280;13507;49.030;11.940;2023-01-30T02:47:14;97353.00;;;18.15;47.52
25110;BME280;13507;49.030;11.940;2023-01-30T02:51:51;97359.38;;;18.19;47.19
25110;BME280;13507;49.030;11.940;2023-01-30T03:08:51;97335.94;;;18.16;47.08
25110;BME280;13507;49.030;11.940;2023-01-30T03:21:18;97281.16;;;18.15;47.03
25110;BME280;13507;49.030;11.940;2023-01-30T03:55:06;97284.88;;;18.19;46.44
25110;BME280;13507;49.030;11.940;2023-01-30T04:09:20;97214.69;;;17.99;47.36
25110;BME280;13507;49.030;11.940;2023-01-30T04:11:16;97217.34;;;17.99;47.28
25110;BME280;13507;49.030;11.940;2023-01-30T04:21:22;97199.53;;;17.95;47.30
25110;BME280;13507;49.030;11.940;2023-01-30T04:33:34;97199.25;;;18.01;46.78
25110;BME280;13507;49.030;11.940;2023-01-30T04:39:10;97195.00;;;18.05;46.94
25110;BME280;13507;49.030;11.940;2023-01-30T04:43:01;97204.03;;;18.10;46.37
25110;BME280;13507;49.030;11.940;2023-01-30T04:47:28;97197.09;;;18.14;46.90
25110;BME280;13507;49.030;11.940;2023-01-30T05:10:52;97182.72;;;18.20;46.99
25110;BME280;13507;49.030;11.940;2023-01-30T05:27:19;97177.66;;;18.29;47.23
25110;BME280;13507;49.030;11.940;2023-01-30T05:29:04;97167.28;;;18.27;47.45
25110;BME280;13507;49.030;11.940;2023-01-30T05:37:26;97178.72;;;18.28;47.09
25110;BME280;13507;49.030;11.940;2023-01-30T05:49:39;97178.19;;;18.26;46.80
25110;BME280;13507;49.030;11.940;2023-01-30T06:21:28;97152.13;;;18.12;47.82
25110;BME280;13507;49.030;11.940;2023-01-30T06:46:45;97134.84;;;18.10;47.23
25110;BME280;13507;49.030;11.940;2023-01-30T06:52:57;97129.53;;;18.10;46.82
25110;BME280;13507;49.030;11.940;2023-01-30T06:59:10;97137.78;;;18.08;47.26
25110;BME280;13507;49.030;11.940;2023-01-30T07:01:02;97135.94;;;18.09;46.85
25110;BME280;13507;49.030;11.940;2023-01-30T07:04:58;97140.97;;;18.10;46.58
25110;BME280;13507;49.030;11.940;2023-01-30T07:19:03;97128.44;;;18.16;46.99
25110;BME280;13507;49.030;11.940;2023-01-30T07:39:55;97108.22;;;18.25;46.26
25110;BME280;13507;49.030;11.940;2023-01-30T07:49:59;97107.66;;;18.28;45.94
25110;BME280;13507;49.030;11.940;2023-01-30T07:51:20;97105.84;;;18.29;45.56
25110;BME280;13507;49.030;11.940;2023-01-30T07:52:44;97105.31;;;18.27;45.93
25110;BME280;13507;49.030;11.940;2023-01-30T07:54:05;97097.03;;;18.33;45.69
25110;BME280;13507;49.030;11.940;2023-01-30T07:55:26;97096.75;;;18.30;45.87
25110;BME280;13507;49.030;11.940;2023-01-30T07:56:48;97083.97;;;18.32;46.01
25110;BME280;13507;49.030;11.940;2023-01-30T07:58:10;97081.31;;;18.37;45.94
25110;BME280;13507;49.030;11.940;2023-01-30T07:59:34;97086.63;;;18.32;45.97
25110;BME280;13507;49.030;11.940;2023-01-30T08:00:55;97091.16;;;18.36;46.46
25110;BME280;13507;49.030;11.940;2023-01-30T08:02:16;97105.53;;;18.35;46.59
25110;BME280;13507;49.030;11.940;2023-01-30T08:03:40;97092.22;;;18.35;47.12
25110;BME280;13507;49.030;11.940;2023-01-30T08:05:04;97086.91;;;18.35;46.79
25110;BME280;13507;49.030;11.940;2023-01-30T08:06:26;97086.09;;;18.35;46.37
25110;BME280;13507;49.030;11.940;2023-01-30T08:07:48;97085.03;;;18.36;46.12
25110;BME280;13507;49.030;11.940;2023-01-30T08:09:09;97085.84;;;18.36;46.25
25110;BME280;13507;49.030;11.940;2023-01-30T08:10:30;97089.28;;;18.37;46.49
25110;BME280;13507;49.030;11.940;2023-01-30T08:11:51;97089.81;;;18.39;46.26
25110;BME280;13507;49.030;11.940;2023-01-30T08:13:12;97099.66;;;18.38;45.96
25110;BME280;13507;49.030;11.940;2023-01-30T08:14:34;97100.44;;;18.39;45.84
25110;BME280;13507;49.030;11.940;2023-01-30T08:15:57;97105.72;;;18.44;46.10
25110;BME280;13507;49.030;11.940;2023-01-30T08:17:19;97109.75;;;18.41;46.33
25110;BME280;13507;49.030;11.940;2023-01-30T08:18:46;97114.00;;;18.42;46.30
25110;BME280;13507;49.030;11.940;2023-01-30T08:20:11;97112.13;;;18.43;45.75
25110;BME280;13507;49.030;11.940;2023-01-30T08:21:32;97120.94;;;18.38;45.93
25110;BME280;13507;49.030;11.940;2023-01-30T08:22:57;97106.84;;;18.38;45.95
25110;BME280;13507;49.030;11.940;2023-01-30T08:24:19;97105.78;;;18.39;46.03
25110;BME280;13507;49.030;11.940;2023-01-30T08:25:43;97103.13;;;18.39;46.00
25110;BME280;13507;49.030;11.940;2023-01-30T08:27:05;97106.03;;;18.37;45.80
25110;BME280;13507;49.030;11.940;2023-01-30T08:28:29;97103.38;;;18.37;46.10
25110;BME280;13507;49.030;11.940;2023-01-30T08:29:50;97091.44;;;18.35;46.42
25110;BME280;13507;49.030;11.940;2023-01-30T08:31:12;97093.81;;;18.36;46.08
25110;BME280;13507;49.030;11.940;2023-01-30T08:32:34;97089.28;;;18.37;46.05
25110;BME280;13507;49.030;11.940;2023-01-30T08:33:55;97086.09;;;18.35;46.18
25110;BME280;13507;49.030;11.940;2023-01-30T08:35:19;97071.78;;;17.09;31.64
25110;BME280;13507;49.030;11.940;2023-01-30T08:36:41;97067.50;;;15.83;30.13
25110;BME280;13507;49.030;11.940;2023-01-30T08:38:10;97069.66;;;15.06;32.70
25110;BME280;13507;49.030;11.940;2023-01-30T08:39:31;97076.13;;;14.12;32.03
25110;BME280;13507;49.030;11.940;2023-01-30T08:40:54;97066.69;;;14.43;34.12
25110;BME280;13507;49.030;11.940;2023-01-30T08:42:15;97067.44;;;14.66;35.30
25110;BME280;13507;49.030;11.940;2023-01-30T08:43:39;97070.63;;;14.95;36.52
25110;BME280;13507;49.030;11.940;2023-01-30T08:45:00;97068.50;;;15.30;37.74
25110;BME280;13507;49.030;11.940;2023-01-30T08:46:25;97073.16;;;15.55;38.30
25110;BME280;13507;49.030;11.940;2023-01-30T08:47:47;97064.59;;;15.80;39.21
25110;BME280;13507;49.030;11.940;2023-01-30T08:49:09;97067.84;;;16.02;39.63
25110;BME280;13507;49.030;11.940;2023-01-30T08:50:33;97067.13;;;16.22;40.04
25110;BME280;13507;49.030;11.940;2023-01-30T08:51:57;97062.94;;;16.42;40.15
25110;BME280;13507;49.030;11.940;2023-01-30T08:53:19;97065.63;;;16.57;40.09
25110;BME280;13507;49.030;11.940;2023-01-30T08:54:40;97056.09;;;16.72;40.47
25110;BME280;13507;49.030;11.940;2023-01-30T08:56:02;97056.63;;;16.84;40.37
25110;BME280;13507;49.030;11.940;2023-01-30T08:57:23;97038.84;;;16.95;40.81
25110;BME280;13507;49.030;11.940;2023-01-30T08:58:44;97038.06;;;17.10;40.36
25110;BME280;13507;49.030;11.940;2023-01-30T09:00:08;97036.16;;;17.20;40.21
25110;BME280;13507;49.030;11.940;2023-01-30T09:01:30;97031.09;;;17.34;40.34
25110;BME280;13507;49.030;11.940;2023-01-30T09:02:53;97033.75;;;17.44;40.25
25110;BME280;13507;49.030;11.940;2023-01-30T09:04:14;97028.19;;;17.51;40.26
25110;BME280;13507;49.030;11.940;2023-01-30T09:05:41;97031.06;;;17.60;40.69
25110;BME280;13507;49.030;11.940;2023-01-30T09:07:03;97031.31;;;17.69;40.60
25110;BME280;13507;49.030;11.940;2023-01-30T09:08:24;97034.72;;;17.74;40.79
25110;BME280;13507;49.030;11.940;2023-01-30T09:09:47;97039.47;;;17.82;40.70
25110;BME280;13507;49.030;11.940;2023-01-30T09:11:09;97031.22;;;17.89;41.19
25110;BME280;13507;49.030;11.940;2023-01-30T09:12:34;97004.59;;;17.94;41.29
25110;BME280;13507;49.030;11.940;2023-01-30T09:13:55;97003.22;;;18.02;41.28
25110;BME280;13507;49.030;11.940;2023-01-30T09:15:16;96996.03;;;18.08;41.51
25110;BME280;13507;49.030;11.940;2023-01-30T09:16:37;96999.19;;;18.15;41.53
25110;BME280;13507;49.030;11.940;2023-01-30T09:17:59;97013.00;;;18.17;41.56
25110;BME280;13507;49.030;11.940;2023-01-30T09:19:20;97003.16;;;18.17;41.86
25110;BME280;13507;49.030;11.940;2023-01-30T09:20:43;96998.38;;;18.24;41.54
25110;BME280;13507;49.030;11.940;2023-01-30T09:22:05;97001.81;;;18.25;41.52
25110;BME280;13507;49.030;11.940;2023-01-30T09:23:29;97013.25;;;18.26;41.94
25110;BME280;13507;49.030;11.940;2023-01-30T09:24:53;97012.97;;;18.27;42.07
25110;BME280;13507;49.030;11.940;2023-01-30T09:26:14;97011.09;;;18.28;42.20
25110;BME280;13507;49.030;11.940;2023-01-30T09:27:35;97011.34;;;18.31;42.38
25110;BME280;13507;49.030;11.940;2023-01-30T09:28:56;97004.22;;;18.27;42.43
25110;BME280;13507;49.030;11.940;2023-01-30T09:30:18;97009.75;;;18.30;42.50
25110;BME280;13507;49.030;11.940;2023-01-30T09:31:43;97006.56;;;18.28;42.34
25110;BME280;13507;49.030;11.940;2023-01-30T09:33:04;97016.41;;;18.28;42.85
25110;BME280;13507;49.030;11.940;2023-01-30T09:34:25;97011.34;;;18.31;42.48
25110;BME280;13507;49.030;11.940;2023-01-30T09:35:52;97018.03;;;18.29;42.63
25110;BME280;13507;49.030;11.940;2023-01-30T09:37:13;97009.75;;;18.30;43.23
25110;BME280;13507;49.030;11.940;2023-01-30T09:38:34;97011.09;;;18.33;42.88
25110;BME280;13507;49.030;11.940;2023-01-30T09:39:55;97009.47;;;18.32;43.15
25110;BME280;13507;49.030;11.940;2023-01-30T09:41:34;97007.63;;;18.32;43.04
25110;BME280;13507;49.030;11.940;2023-01-30T09:43:13;97004.97;;;18.32;42.83
25110;BME280;13507;49.030;11.940;2023-01-30T09:44:54;97012.13;;;18.32;42.57
25110;BME280;13507;49.030;11.940;2023-01-30T09:46:29;97003.88;;;18.33;42.88
25110;BME280;13507;49.030;11.940;2023-01-30T09:48:00;96995.13;;;18.33;42.72
25110;BME280;13507;49.030;11.940;2023-01-30T09:49:30;97000.44;;;18.33;42.61
25110;BME280;13507;49.030;11.940;2023-01-30T09:51:29;97006.28;;;18.35;42.55
25110;BME280;13507;49.030;11.940;2023-01-30T09:52:59;97002.84;;;18.34;43.63
25110;BME280;13507;49.030;11.940;2023-01-30T09:54:25;96987.41;;;18.31;43.68
25110;BME280;13507;49.030;11.940;2023-01-30T09:55:49;96986.03;;;18.34;43.67
25110;BME280;13507;49.030;11.940;2023-01-30T09:57:15;96986.88;;;18.34;43.87
25110;BME280;13507;49.030;11.940;2023-01-30T09:58:44;96983.69;;;18.32;44.15
25110;BME280;13507;49.030;11.940;2023-01-30T10:00:11;96990.84;;;18.32;43.77
25110;BME280;13507;49.030;11.940;2023-01-30T10:01:39;96980.72;;;18.34;43.80
25110;BME280;13507;49.030;11.940;2023-01-30T10:03:10;96984.72;;;18.36;44.45
25110;BME280;13507;49.030;11.940;2023-01-30T10:04:34;96990.03;;;18.36;44.47
25110;BME280;13507;49.030;11.940;2023-01-30T10:05:58;96983.13;;;18.35;44.08
25110;BME280;13507;49.030;11.940;2023-01-30T10:07:28;96977.25;;;18.38;44.28
25110;BME280;13507;49.030;11.940;2023-01-30T10:08:57;96979.09;;;18.38;44.71
25110;BME280;13507;49.030;11.940;2023-01-30T10:10:28;96977.19;;;18.43;44.25
25110;BME280;13507;49.030;11.940;2023-01-30T10:12:03;96969.28;;;18.38;44.29
25110;BME280;13507;49.030;11.940;2023-01-30T10:13:42;96967.94;;;18.36;44.34
25110;BME280;13507;49.030;11.940;2023-01-30T10:15:16;96960.78;;;18.31;44.93
25110;BME280;13507;49.030;11.940;2023-01-30T10:16:46;96960.53;;;18.33;44.35
25110;BME280;13507;49.030;11.940;2023-01-30T10:18:36;96968.47;;;18.38;44.23
25110;BME280;13507;49.030;11.940;2023-01-30T10:20:24;96961.00;;;18.40;44.13
25110;BME280;13507;49.030;11.940;2023-01-30T10:21:54;96966.59;;;18.38;43.63
25110;BME280;13507;49.030;11.940;2023-01-30T10:23:32;96973.00;;;18.37;44.02
25110;BME280;13507;49.030;11.940;2023-01-30T10:25:09;96969.53;;;18.37;44.07
25110;BME280;13507;49.030;11.940;2023-01-30T10:26:35;96967.16;;;18.35;44.14
25110;BME280;13507;49.030;11.940;2023-01-30T10:28:03;96957.88;;;18.33;43.73
25110;BME280;13507;49.030;11.940;2023-01-30T10:29:30;96949.88;;;18.33;44.28
25110;BME280;13507;49.030;11.940;2023-01-30T10:31:01;96955.75;;;18.30;43.74
25110;BME280;13507;49.030;11.940;2023-01-30T10:32:26;96961.59;;;18.32;43.55
25110;BME280;13507;49.030;11.940;2023-01-30T10:33:56;96958.41;;;18.30;43.72
25110;BME280;13507;49.030;11.940;2023-01-30T10:35:22;96958.16;;;18.26;44.06
25110;BME280;13507;49.030;11.940;2023-01-30T10:36:52;96947.25;;;18.28;44.18
25110;BME280;13507;49.030;11.940;2023-01-30T10:38:17;96959.25;;;18.25;44.47
25110;BME280;13507;49.030;11.940;2023-01-30T10:39:47;96951.78;;;18.27;43.73
25110;BME280;13507;49.030;11.940;2023-01-30T10:41:22;96947.81;;;18.24;43.97
25110;BME280;13507;49.030;11.940;2023-01-30T10:42:49;96945.94;;;18.25;44.42
25110;BME280;13507;49.030;11.940;2023-01-30T10:44:13;96952.59;;;18.22;44.84
25110;BME280;13507;49.030;11.940;2023-01-30T10:45:38;96940.88;;;18.23;44.79
25110;BME280;13507;49.030;11.940;2023-01-30T10:49:10;96935.03;;;18.27;44.40
25110;BME280;13507;49.030;11.940;2023-01-30T10:50:39;96940.88;;;18.23;44.48
25110;BME280;13507;49.030;11.940;2023-01-30T10:52:16;96936.88;;;18.26;45.34
25110;BME280;13507;49.030;11.940;2023-01-30T10:53:46;96928.09;;;18.26;45.05
25110;BME280;13507;49.030;11.940;2023-01-30T10:55:17;96919.59;;;18.23;44.93
25110;BME280;13507;49.030;11.940;2023-01-30T10:57:02;96922.50;;;18.27;44.98
25110;BME280;13507;49.030;11.940;2023-01-30T10:58:28;96913.22;;;18.24;45.19
25110;BME280;13507;49.030;11.940;2023-01-30T10:59:56;96920.66;;;18.22;45.43
25110;BME280;13507;49.030;11.940;2023-01-30T11:01:22;96925.72;;;18.24;45.85
25110;BME280;13507;49.030;11.940;2023-01-30T11:02:52;96913.22;;;18.24;45.38
25110;BME280;13507;49.030;11.940;2023-01-30T11:04:24;96926.75;;;18.28;45.16
25110;BME280;13507;49.030;11.940;2023-01-30T11:05:53;96919.59;;;18.23;44.98
25110;BME280;13507;49.030;11.940;2023-01-30T11:07:17;96915.59;;;18.26;45.01
25110;BME280;13507;49.030;11.940;2023-01-30T11:08:41;96912.94;;;18.26;45.13
25110;BME280;13507;49.030;11.940;2023-01-30T11:10:16;96916.69;;;18.25;45.38
25110;BME280;13507;49.030;11.940;2023-01-30T11:11:46;96911.34;;;18.25;45.84
25110;BME280;13507;49.030;11.940;2023-01-30T11:13:13;96915.06;;;18.24;45.30
25110;BME280;13507;49.030;11.940;2023-01-30T11:14:53;96918.00;;;18.22;45.22
25110;BME280;13507;49.030;11.940;2023-01-30T11:16:15;96920.66;;;18.22;45.32
25110;BME280;13507;49.030;11.940;2023-01-30T11:17:39;96927.31;;;18.25;45.59
25110;BME280;13507;49.030;11.940;2023-01-30T11:19:04;96916.13;;;18.23;45.23
25110;BME280;13507;49.030;11.940;2023-01-30T11:20:43;96897.78;;;18.27;45.26
25110;BME280;13507;49.030;11.940;2023-01-30T11:22:12;96900.97;;;18.23;45.38
25110;BME280;13507;49.030;11.940;2023-01-30T11:23:40;96910.56;;;18.24;45.56
25110;BME280;13507;49.030;11.940;2023-01-30T11:25:04;96906.28;;;18.23;44.89
25110;BME280;13507;49.030;11.940;2023-01-30T11:26:33;96908.41;;;18.21;45.36
25110;BME280;13507;49.030;11.940;2023-01-30T11:28:12;96910.28;;;18.21;45.22
25110;BME280;13507;49.030;11.940;2023-01-30T11:29:38;96899.66;;;18.21;45.58
25110;BME280;13507;49.030;11.940;2023-01-30T11:31:00;96906.84;;;18.20;45.50
25110;BME280;13507;49.030;11.940;2023-01-30T11:32:24;96903.66;;;18.18;45.47
25110;BME280;13507;49.030;11.940;2023-01-30T11:33:59;96901.78;;;18.24;45.76
25110;BME280;13507;49.030;11.940;2023-01-30T11:35:26;96892.72;;;18.25;45.12
25110;BME280;13507;49.030;11.940;2023-01-30T11:36:50;96893.78;;;18.24;45.46
25110;BME280;13507;49.030;11.940;2023-01-30T11:38:20;96891.94;;;18.24;45.36
25110;BME280;13507;49.030;11.940;2023-01-30T11:39:50;96884.75;;;18.25;45.49
25110;BME280;13507;49.030;11.940;2023-01-30T11:41:19;96893.78;;;18.24;45.45
25110;BME280;13507;49.030;11.940;2023-01-30T11:42:46;96888.97;;;18.26;45.23
25110;BME280;13507;49.030;11.940;2023-01-30T11:44:09;96887.41;;;18.25;45.08
25110;BME280;13507;49.030;11.940;2023-01-30T11:45:35;96888.47;;;18.24;45.06
25110;BME280;13507;49.030;11.940;2023-01-30T11:46:59;96889.53;;;18.23;44.96
25110;BME280;13507;49.030;11.940;2023-01-30T11:48:26;96891.13;;;18.24;45.08
25110;BME280;13507;49.030;11.940;2023-01-30T11:49:55;96897.50;;;18.23;45.19
25110;BME280;13507;49.030;11.940;2023-01-30T11:51:39;96890.31;;;18.23;45.37
25110;BME280;13507;49.030;11.940;2023-01-30T11:53:02;96890.06;;;18.20;45.20
25110;BME280;13507;49.030;11.940;2023-01-30T11:54:29;96892.19;;;18.23;45.64
25110;BME280;13507;49.030;11.940;2023-01-30T11:55:54;96894.84;;;18.23;45.00
25110;BME280;13507;49.030;11.940;2023-01-30T11:57:27;96891.69;;;18.21;45.42
25110;BME280;13507;49.030;11.940;2023-01-30T11:58:57;96886.63;;;18.19;45.24
25110;BME280;13507;49.030;11.940;2023-01-30T12:00:24;96887.94;;;18.22;45.62
25110;BME280;13507;49.030;11.940;2023-01-30T12:01:46;96881.53;;;18.23;45.21
25110;BME280;13507;49.030;11.940;2023-01-30T12:03:11;96878.09;;;18.22;45.15
25110;BME280;13507;49.030;11.940;2023-01-30T12:04:35;96882.91;;;18.20;45.58
25110;BME280;13507;49.030;11.940;2023-01-30T12:05:57;96879.72;;;18.18;45.25
25110;BME280;13507;49.030;11.940;2023-01-30T12:07:22;96886.91;;;18.18;45.32
25110;BME280;13507;49.030;11.940;2023-01-30T12:08:50;96890.66;;;18.17;45.00
25110;BME280;13507;49.030;11.940;2023-01-30T12:10:27;96879.72;;;18.18;45.72
25110;BME280;13507;49.030;11.940;2023-01-30T12:11:49;96887.19;;;18.16;45.26
25110;BME280;13507;49.030;11.940;2023-01-30T12:13:17;96877.34;;;18.17;45.48
25110;BME280;13507;49.030;11.940;2023-01-30T12:14:45;96884.53;;;18.16;45.47
25110;BME280;13507;49.030;11.940;2023-01-30T12:16:17;96877.63;;;18.15;45.13
25110;BME280;13507;49.030;11.940;2023-01-30T12:17:43;96872.28;;;18.15;45.33
25110;BME280;13507;49.030;11.940;2023-01-30T12:19:19;96869.91;;;18.14;45.35
25110;BME280;13507;49.030;11.940;2023-01-30T12:20:51;96868.84;;;18.15;45.37
25110;BME280;13507;49.030;11.940;2023-01-30T12:22:21;96862.72;;;18.14;45.61
25110;BME280;13507;49.030;11.940;2023-01-30T12:23:49;96873.34;;;18.14;45.71
25110;BME280;13507;49.030;11.940;2023-01-30T12:25:15;96869.63;;;18.15;45.31
25110;BME280;13507;49.030;11.940;2023-01-30T12:26:45;96865.94;;;18.11;46.37
25110;BME280;13507;49.030;11.940;2023-01-30T12:28:12;96860.34;;;18.13;45.97
25110;BME280;13507;49.030;11.940;2023-01-30T12:29:37;96854.22;;;18.12;46.27
25110;BME280;13507;49.030;11.940;2023-01-30T12:31:07;96861.66;;;18.15;47.03
25110;BME280;13507;49.030;11.940;2023-01-30T12:32:33;96852.81;;;18.20;46.97
25110;BME280;13507;49.030;11.940;2023-01-30T12:33:57;96861.38;;;18.17;46.98
25110;BME280;13507;49.030;11.940;2023-01-30T12:35:23;96861.63;;;18.20;46.51
25110;BME280;13507;49.030;11.940;2023-01-30T12:36:55;96855.22;;;18.21;46.78
25110;BME280;13507;49.030;11.940;2023-01-30T12:38:30;96852.28;;;18.23;47.02
25110;BME280;13507;49.030;11.940;2023-01-30T12:40:03;96859.00;;;18.15;43.09
25110;BME280;13507;49.030;11.940;2023-01-30T12:41:36;96855.03;;;18.13;44.35
25110;BME280;13507;49.030;11.940;2023-01-30T12:43:13;96849.97;;;18.16;45.76
25110;BME280;13507;49.030;11.940;2023-01-30T12:44:52;96852.63;;;18.16;45.53
25110;BME280;13507;49.030;11.940;2023-01-30T12:46:31;96863.53;;;18.15;45.83
25110;BME280;13507;49.030;11.940;2023-01-30T12:48:19;96868.28;;;18.18;45.93
25110;BME280;13507;49.030;11.940;2023-01-30T12:49:56;96871.75;;;18.18;45.91
25110;BME280;13507;49.030;11.940;2023-01-30T12:51:36;96875.47;;;18.17;45.74
25110;BME280;13507;49.030;11.940;2023-01-30T12:53:28;96871.69;;;18.23;45.76
25110;BME280;13507;49.030;11.940;2023-01-30T12:54:56;96871.19;;;18.21;45.90
25110;BME280;13507;49.030;11.940;2023-01-30T12:56:35;96873.91;;;18.16;45.94
25110;BME280;13507;49.030;11.940;2023-01-30T12:58:06;96876.00;;;18.14;46.00
25110;BME280;13507;49.030;11.940;2023-01-30T12:59:35;96876.56;;;18.16;46.10
25110;BME280;13507;49.030;11.940;2023-01-30T13:01:12;96870.69;;;18.14;46.24
25110;BME280;13507;49.030;11.940;2023-01-30T13:02:56;96876.81;;;18.15;45.95
25110;BME280;13507;49.030;11.940;2023-01-30T13:04:42;96872.03;;;18.17;45.74
25110;BME280;13507;49.030;11.940;2023-01-30T13:08:31;96889.31;;;18.14;46.04
25110;BME280;13507;49.030;11.940;2023-01-30T13:10:06;96886.94;;;18.13;46.29
25110;BME280;13507;49.030;11.940;2023-01-30T13:11:41;96891.97;;;18.14;46.80
25110;BME280;13507;49.030;11.940;2023-01-30T13:13:14;96895.44;;;18.15;46.72
25110;BME280;13507;49.030;11.940;2023-01-30T13:14:40;96898.38;;;18.13;46.76
25110;BME280;13507;49.030;11.940;2023-01-30T13:16:13;96900.50;;;18.16;47.41
25110;BME280;13507;49.030;11.940;2023-01-30T13:17:50;96897.84;;;18.16;46.90
25110;BME280;13507;49.030;11.940;2023-01-30T13:19:22;96895.97;;;18.17;47.78
25110;BME280;13507;49.030;11.940;2023-01-30T13:20:55;96893.31;;;18.17;47.25
25110;BME280;13507;49.030;11.940;2023-01-30T13:22:28;96901.00;;;18.18;47.50
25110;BME280;13507;49.030;11.940;2023-01-30T13:23:59;96904.47;;;18.19;47.13
25110;BME280;13507;49.030;11.940;2023-01-30T13:25:33;96903.38;;;18.20;47.40
25110;BME280;13507;49.030;11.940;2023-01-30T13:26:48;96906.84;;;18.20;47.83
25110;BME280;13507;49.030;11.940;2023-01-30T13:28:13;96924.38;;;18.21;47.87
25110;BME280;13507;49.030;11.940;2023-01-30T13:29:38;96917.25;;;18.17;47.98
25110;BME280;13507;49.030;11.940;2023-01-30T13:31:01;96909.25;;;18.17;47.46
25110;BME280;13507;49.030;11.940;2023-01-30T13:32:33;96914.00;;;18.20;47.72
25110;BME280;13507;49.030;11.940;2023-01-30T13:34:03;96899.94;;;18.14;47.63
25110;BME280;13507;49.030;11.940;2023-01-30T13:35:31;96902.84;;;18.18;47.58
25110;BME280;13507;49.030;11.940;2023-01-30T13:36:57;96915.34;;;18.22;47.61
25110;BME280;13507;49.030;11.940;2023-01-30T13:38:23;96903.38;;;18.20;47.91
25110;BME280;13507;49.030;11.940;2023-01-30T13:39:48;96901.81;;;18.19;47.76
25110;BME280;13507;49.030;11.940;2023-01-30T13:41:15;96893.81;;;18.19;47.76
25110;BME280;13507;49.030;11.940;2023-01-30T13:42:43;96897.25;;;18.19;47.26
25110;BME280;13507;49.030;11.940;2023-01-30T13:44:14;96893.81;;;18.19;47.58
25110;BME280;13507;49.030;11.940;2023-01-30T13:45:39;96901.22;;;18.22;47.54
25110;BME280;13507;49.030;11.940;2023-01-30T13:47:10;96889.53;;;18.23;47.91
25110;BME280;13507;49.030;11.940;2023-01-30T13:48:42;96890.59;;;18.22;47.71
25110;BME280;13507;49.030;11.940;2023-01-30T13:50:24;96891.13;;;18.24;47.62
25110;BME280;13507;49.030;11.940;2023-01-30T13:51:57;96894.06;;;18.22;47.75
25110;BME280;13507;49.030;11.940;2023-01-30T13:53:27;96891.94;;;18.19;47.84
25110;BME280;13507;49.030;11.940;2023-01-30T13:55:00;96900.16;;;18.23;47.44
25110;BME280;13507;49.030;11.940;2023-01-30T13:56:30;96900.97;;;18.23;47.57
25110;BME280;13507;49.030;11.940;2023-01-30T13:58:13;96897.78;;;18.27;47.52
25110;BME280;13507;49.030;11.940;2023-01-30T13:59:58;96901.19;;;18.32;47.45
25110;BME280;13507;49.030;11.940;2023-01-30T14:03:27;96905.91;;;18.40;47.28
25110;BME280;13507;49.030;11.940;2023-01-30T14:04:51;96911.66;;;18.53;46.92
25110;BME280;13507;49.030;11.940;2023-01-30T14:06:25;96906.25;;;18.63;46.68
25110;BME280;13507;49.030;11.940;2023-01-30T14:07:55;96906.22;;;18.68;46.66
25110;BME280;13507;49.030;11.940;2023-01-30T14:09:19;96909.56;;;18.79;46.93
25110;BME280;13507;49.030;11.940;2023-01-30T14:10:44;96906.78;;;18.89;46.30
25110;BME280;13507;49.030;11.940;2023-01-30T14:12:05;96910.09;;;18.76;46.80
25110;BME280;13507;49.030;11.940;2023-01-30T14:13:31;96911.75;;;18.72;46.94
25110;BME280;13507;49.030;11.940;2023-01-30T14:15:02;96915.25;;;18.67;46.89
25110;BME280;13507;49.030;11.940;2023-01-30T14:16:39;96921.72;;;18.61;46.85
25110;BME280;13507;49.030;11.940;2023-01-30T14:18:03;96925.22;;;18.56;46.93
25110;BME280;13507;49.030;11.940;2023-01-30T14:19:32;96919.38;;;18.54;46.98
25110;BME280;13507;49.030;11.940;2023-01-30T14:21:12;96910.91;;;18.47;47.14
25110;BME280;13507;49.030;11.940;2023-01-30T14:22:38;96922.66;;;18.41;46.84
25110;BME280;13507;49.030;11.940;2023-01-30T14:24:05;96917.34;;;18.41;46.76
25110;BME280;13507;49.030;11.940;2023-01-30T14:25:47;96919.78;;;18.37;47.32
25110;BME280;13507;49.030;11.940;2023-01-30T14:27:30;96915.81;;;18.35;47.26
25110;BME280;13507;49.030;11.940;2023-01-30T14:28:54;96911.84;;;18.32;47.49
25110;BME280;13507;49.030;11.940;2023-01-30T14:30:34;96900.38;;;18.32;47.24
25110;BME280;13507;49.030;11.940;2023-01-30T14:31:55;96903.31;;;18.30;47.50
25110;BME280;13507;49.030;11.940;2023-01-30T14:33:34;96902.25;;;18.31;47.05
25110;BME280;13507;49.030;11.940;2023-01-30T14:35:20;96893.75;;;18.29;47.32
25110;BME280;13507;49.030;11.940;2023-01-30T14:36:46;96896.97;;;18.26;47.33
25110;BME280;13507;49.030;11.940;2023-01-30T14:38:11;96894.59;;;18.24;47.08
25110;BME280;13507;49.030;11.940;2023-01-30T14:39:39;96904.94;;;18.26;47.64
25110;BME280;13507;49.030;11.940;2023-01-30T14:41:24;96901.50;;;18.26;47.38
25110;BME280;13507;49.030;11.940;2023-01-30T14:43:33;96911.09;;;18.27;47.89
25110;BME280;13507;49.030;11.940;2023-01-30T14:45:00;96908.94;;;18.23;47.33
25110;BME280;13507;49.030;11.940;2023-01-30T14:46:40;96908.94;;;18.23;47.71
25110;BME280;13507;49.030;11.940;2023-01-30T14:48:27;96918.78;;;18.23;47.46